sensor_id;sensor_type;location;lat;lon;timestamp;pressure;altitude;pressure_sealevel;temperature;humidity
74633;BME280;63139;52.018;8.552;2023-04-06T00:01:56;100836.00;;;-0.47;74.69
74633;BME280;63139;52.018;8.552;2023-04-06T00:04:24;100832.66;;;-0.49;73.94
74633;BME280;63139;52.018;8.552;2023-04-06T00:06:53;100830.97;;;-0.50;73.93
74633;BME280;63139;52.018;8.552;2023-04-06T00:09:22;100825.06;;;-0.52;74.28
74633;BME280;63139;52.018;8.552;2023-04-06T00:11:50;100826.91;;;-0.54;73.94
74633;BME280;63139;52.018;8.552;2023-04-06T00:14:18;100820.09;;;-0.57;73.93
74633;BME280;63139;52.018;8.552;2023-04-06T00:16:45;100822.06;;;-0.60;74.62
74633;BME280;63139;52.018;8.552;2023-04-06T00:19:13;100814.34;;;-0.62;74.50
74633;BME280;63139;52.018;8.552;2023-04-06T00:21:41;100815.25;;;-0.63;74.32
74633;BME280;63139;52.018;8.552;2023-04-06T00:24:09;100811.19;;;-0.67;74.12
74633;BME280;63139;52.018;8.552;2023-04-06T00:26:39;100811.25;;;-0.68;74.39
74633;BME280;63139;52.018;8.552;2023-04-06T00:29:07;100800.09;;;-0.70;74.89
74633;BME280;63139;52.018;8.552;2023-04-06T00:31:35;100806.16;;;-0.70;74.66
74633;BME280;63139;52.018;8.552;2023-04-06T00:34:03;100799.44;;;-0.74;74.55
74633;BME280;63139;52.018;8.552;2023-04-06T00:36:31;100798.63;;;-0.74;74.75
74633;BME280;63139;52.018;8.552;2023-04-06T00:38:59;100796.13;;;-0.76;74.85
74633;BME280;63139;52.018;8.552;2023-04-06T00:41:27;100791.91;;;-0.79;75.06
74633;BME280;63139;52.018;8.552;2023-04-06T00:43:56;100788.56;;;-0.81;74.99
74633;BME280;63139;52.018;8.552;2023-04-06T00:46:24;100786.06;;;-0.82;74.92
74633;BME280;63139;52.018;8.552;2023-04-06T00:48:52;100780.97;;;-0.84;74.78
74633;BME280;63139;52.018;8.552;2023-04-06T00:51:20;100778.44;;;-0.85;75.19
74633;BME280;63139;52.018;8.552;2023-04-06T00:53:48;100785.41;;;-0.86;75.51
74633;BME280;63139;52.018;8.552;2023-04-06T00:56:16;100777.69;;;-0.87;75.12
74633;BME280;63139;52.018;8.552;2023-04-06T00:58:50;100773.41;;;-0.88;74.76
74633;BME280;63139;52.018;8.552;2023-04-06T01:01:20;100780.28;;;-0.87;74.90
74633;BME280;63139;52.018;8.552;2023-04-06T01:03:50;100771.75;;;-0.89;75.10
74633;BME280;63139;52.018;8.552;2023-04-06T01:06:19;100777.69;;;-0.87;74.98
74633;BME280;63139;52.018;8.552;2023-04-06T01:08:56;100768.31;;;-0.90;75.45
74633;BME280;63139;52.018;8.552;2023-04-06T01:11:27;100771.00;;;-0.91;75.16
74633;BME280;63139;52.018;8.552;2023-04-06T01:13:55;100765.88;;;-0.93;75.53
74633;BME280;63139;52.018;8.552;2023-04-06T01:16:45;100766.81;;;-0.94;75.35
74633;BME280;63139;52.018;8.552;2023-04-06T01:19:17;100763.44;;;-0.96;75.82
74633;BME280;63139;52.018;8.552;2023-04-06T01:21:49;100758.44;;;-0.99;75.51
74633;BME280;63139;52.018;8.552;2023-04-06T01:24:41;100755.00;;;-0.99;75.85
74633;BME280;63139;52.018;8.552;2023-04-06T01:27:21;100748.22;;;-1.02;75.43
74633;BME280;63139;52.018;8.552;2023-04-06T01:30:04;100754.44;;;-1.04;75.63
74633;BME280;63139;52.018;8.552;2023-04-06T01:32:55;100744.91;;;-1.04;76.50
74633;BME280;63139;52.018;8.552;2023-04-06T01:35:47;100744.97;;;-1.05;76.19
74633;BME280;63139;52.018;8.552;2023-04-06T01:38:18;100743.31;;;-1.06;76.16
74633;BME280;63139;52.018;8.552;2023-04-06T01:40:49;100740.78;;;-1.08;76.18
74633;BME280;63139;52.018;8.552;2023-04-06T01:43:20;100739.94;;;-1.08;76.08
74633;BME280;63139;52.018;8.552;2023-04-06T01:46:08;100733.91;;;-1.09;76.36
74633;BME280;63139;52.018;8.552;2023-04-06T01:48:40;100740.88;;;-1.09;76.23
74633;BME280;63139;52.018;8.552;2023-04-06T01:51:30;100738.47;;;-1.12;76.22
74633;BME280;63139;52.018;8.552;2023-04-06T01:54:01;100736.78;;;-1.13;76.60
74633;BME280;63139;52.018;8.552;2023-04-06T01:56:41;100730.75;;;-1.14;75.89
74633;BME280;63139;52.018;8.552;2023-04-06T01:59:27;100729.06;;;-1.15;76.20
74633;BME280;63139;52.018;8.552;2023-04-06T02:01:57;100732.59;;;-1.16;76.42
74633;BME280;63139;52.018;8.552;2023-04-06T02:04:27;100734.34;;;-1.17;76.42
74633;BME280;63139;52.018;8.552;2023-04-06T02:07:04;100732.66;;;-1.18;76.41
74633;BME280;63139;52.018;8.552;2023-04-06T02:09:33;100733.69;;;-1.20;76.23
74633;BME280;63139;52.018;8.552;2023-04-06T02:12:02;100728.50;;;-1.20;76.88
74633;BME280;63139;52.018;8.552;2023-04-06T02:14:32;100728.50;;;-1.20;76.75
74633;BME280;63139;52.018;8.552;2023-04-06T02:17:00;100727.66;;;-1.21;77.32
74633;BME280;63139;52.018;8.552;2023-04-06T02:19:28;100728.59;;;-1.22;77.00
74633;BME280;63139;52.018;8.552;2023-04-06T02:21:56;100721.56;;;-1.20;76.93
74633;BME280;63139;52.018;8.552;2023-04-06T02:24:24;100719.97;;;-1.22;76.94
74633;BME280;63139;52.018;8.552;2023-04-06T02:26:52;100720.81;;;-1.22;76.80
74633;BME280;63139;52.018;8.552;2023-04-06T02:29:21;100719.13;;;-1.23;76.99
74633;BME280;63139;52.018;8.552;2023-04-06T02:31:49;100725.16;;;-1.22;77.11
74633;BME280;63139;52.018;8.552;2023-04-06T02:34:18;100727.75;;;-1.22;76.99
74633;BME280;63139;52.018;8.552;2023-04-06T02:36:49;100719.22;;;-1.24;77.07
74633;BME280;63139;52.018;8.552;2023-04-06T02:39:17;100725.25;;;-1.24;77.33
74633;BME280;63139;52.018;8.552;2023-04-06T02:41:45;100721.06;;;-1.26;77.05
74633;BME280;63139;52.018;8.552;2023-04-06T02:44:18;100715.88;;;-1.26;77.43
74633;BME280;63139;52.018;8.552;2023-04-06T02:46:48;100713.38;;;-1.28;77.33
74633;BME280;63139;52.018;8.552;2023-04-06T02:49:16;100713.44;;;-1.29;77.50
74633;BME280;63139;52.018;8.552;2023-04-06T02:51:44;100716.03;;;-1.29;77.39
74633;BME280;63139;52.018;8.552;2023-04-06T02:54:20;100716.19;;;-1.32;77.03
74633;BME280;63139;52.018;8.552;2023-04-06T02:56:48;100711.13;;;-1.34;77.28
74633;BME280;63139;52.018;8.552;2023-04-06T02:59:16;100715.47;;;-1.34;77.45
74633;BME280;63139;52.018;8.552;2023-04-06T03:01:57;100713.81;;;-1.35;77.82
74633;BME280;63139;52.018;8.552;2023-04-06T03:04:25;100714.72;;;-1.36;77.68
74633;BME280;63139;52.018;8.552;2023-04-06T03:06:56;100714.88;;;-1.39;77.22
74633;BME280;63139;52.018;8.552;2023-04-06T03:09:37;100717.47;;;-1.39;78.11
74633;BME280;63139;52.018;8.552;2023-04-06T03:12:05;100714.03;;;-1.40;78.03
74633;BME280;63139;52.018;8.552;2023-04-06T03:14:52;100719.34;;;-1.41;77.71
74633;BME280;63139;52.018;8.552;2023-04-06T03:17:21;100715.06;;;-1.42;77.45
74633;BME280;63139;52.018;8.552;2023-04-06T03:19:49;100715.91;;;-1.42;77.35
74633;BME280;63139;52.018;8.552;2023-04-06T03:22:19;100716.91;;;-1.44;78.14
74633;BME280;63139;52.018;8.552;2023-04-06T03:24:47;100718.50;;;-1.42;77.87
74633;BME280;63139;52.018;8.552;2023-04-06T03:27:15;100717.75;;;-1.44;77.54
74633;BME280;63139;52.018;8.552;2023-04-06T03:29:44;100717.75;;;-1.44;77.65
74633;BME280;63139;52.018;8.552;2023-04-06T03:32:17;100710.94;;;-1.46;78.25
74633;BME280;63139;52.018;8.552;2023-04-06T03:34:46;100710.03;;;-1.45;78.75
74633;BME280;63139;52.018;8.552;2023-04-06T03:37:14;100702.25;;;-1.45;78.98
74633;BME280;63139;52.018;8.552;2023-04-06T03:39:47;100713.38;;;-1.43;78.87
74633;BME280;63139;52.018;8.552;2023-04-06T03:42:20;100705.53;;;-1.42;79.14
74633;BME280;63139;52.018;8.552;2023-04-06T03:44:52;100712.47;;;-1.42;79.11
74633;BME280;63139;52.018;8.552;2023-04-06T03:47:20;100704.59;;;-1.41;78.22
74633;BME280;63139;52.018;8.552;2023-04-06T03:49:50;100704.59;;;-1.41;77.73
74633;BME280;63139;52.018;8.552;2023-04-06T03:52:18;100708.97;;;-1.41;77.90
74633;BME280;63139;52.018;8.552;2023-04-06T03:54:46;100706.38;;;-1.41;78.06
74633;BME280;63139;52.018;8.552;2023-04-06T03:57:14;100706.44;;;-1.43;78.13
74633;BME280;63139;52.018;8.552;2023-04-06T03:59:41;100700.41;;;-1.43;78.26
74633;BME280;63139;52.018;8.552;2023-04-06T04:02:09;100711.56;;;-1.41;78.41
74633;BME280;63139;52.018;8.552;2023-04-06T04:04:37;100709.97;;;-1.44;77.93
74633;BME280;63139;52.018;8.552;2023-04-06T04:07:07;100709.88;;;-1.42;77.84
74633;BME280;63139;52.018;8.552;2023-04-06T04:09:36;100710.78;;;-1.43;78.17
74633;BME280;63139;52.018;8.552;2023-04-06T04:12:05;100709.13;;;-1.44;78.20
74633;BME280;63139;52.018;8.552;2023-04-06T04:14:33;100716.16;;;-1.46;78.31
74633;BME280;63139;52.018;8.552;2023-04-06T04:17:00;100711.03;;;-1.48;77.92
74633;BME280;63139;52.018;8.552;2023-04-06T04:19:28;100712.91;;;-1.50;78.31
74633;BME280;63139;52.018;8.552;2023-04-06T04:21:56;100718.16;;;-1.51;78.05
74633;BME280;63139;52.018;8.552;2023-04-06T04:24:32;100717.41;;;-1.53;78.05
74633;BME280;63139;52.018;8.552;2023-04-06T04:27:01;100710.47;;;-1.53;77.98
74633;BME280;63139;52.018;8.552;2023-04-06T04:29:31;100717.41;;;-1.53;77.80
74633;BME280;63139;52.018;8.552;2023-04-06T04:32:03;100714.06;;;-1.56;78.18
74633;BME280;63139;52.018;8.552;2023-04-06T04:34:32;100708.88;;;-1.56;78.15
74633;BME280;63139;52.018;8.552;2023-04-06T04:37:01;100707.94;;;-1.54;78.55
74633;BME280;63139;52.018;8.552;2023-04-06T04:39:44;100702.69;;;-1.53;78.55
74633;BME280;63139;52.018;8.552;2023-04-06T04:42:13;100705.19;;;-1.51;78.40
74633;BME280;63139;52.018;8.552;2023-04-06T04:44:47;100708.63;;;-1.51;78.33
74633;BME280;63139;52.018;8.552;2023-04-06T04:47:21;100701.69;;;-1.50;78.63
74633;BME280;63139;52.018;8.552;2023-04-06T04:49:49;100710.22;;;-1.48;78.49
74633;BME280;63139;52.018;8.552;2023-04-06T04:52:21;100708.34;;;-1.46;78.57
74633;BME280;63139;52.018;8.552;2023-04-06T04:55:00;100712.63;;;-1.45;78.30
74633;BME280;63139;52.018;8.552;2023-04-06T04:57:28;100709.97;;;-1.44;77.73
74633;BME280;63139;52.018;8.552;2023-04-06T04:59:56;100711.56;;;-1.41;78.38
74633;BME280;63139;52.018;8.552;2023-04-06T05:02:24;100707.09;;;-1.39;77.96
74633;BME280;63139;52.018;8.552;2023-04-06T05:05:11;100712.13;;;-1.36;77.67
74633;BME280;63139;52.018;8.552;2023-04-06T05:07:40;100717.97;;;-1.33;78.36
74633;BME280;63139;52.018;8.552;2023-04-06T05:10:15;100718.63;;;-1.29;77.73
74633;BME280;63139;52.018;8.552;2023-04-06T05:12:52;100725.31;;;-1.25;77.64
74633;BME280;63139;52.018;8.552;2023-04-06T05:15:20;100719.13;;;-1.23;77.53
74633;BME280;63139;52.018;8.552;2023-04-06T05:17:52;100723.22;;;-1.19;77.85
74633;BME280;63139;52.018;8.552;2023-04-06T05:20:25;100726.31;;;-1.12;77.69
74633;BME280;63139;52.018;8.552;2023-04-06T05:22:53;100720.00;;;-1.08;77.72
74633;BME280;63139;52.018;8.552;2023-04-06T05:25:22;100730.03;;;-1.02;77.78
74633;BME280;63139;52.018;8.552;2023-04-06T05:27:53;100726.25;;;-0.96;77.40
74633;BME280;63139;52.018;8.552;2023-04-06T05:30:34;100728.41;;;-0.89;77.21
74633;BME280;63139;52.018;8.552;2023-04-06T05:33:03;100729.00;;;-0.84;77.15
74633;BME280;63139;52.018;8.552;2023-04-06T05:35:44;100722.50;;;-0.76;76.71
74633;BME280;63139;52.018;8.552;2023-04-06T05:38:13;100721.22;;;-0.69;77.05
74633;BME280;63139;52.018;8.552;2023-04-06T05:40:42;100715.72;;;-0.65;76.55
74633;BME280;63139;52.018;8.552;2023-04-06T05:43:14;100725.69;;;-0.57;76.14
74633;BME280;63139;52.018;8.552;2023-04-06T05:45:45;100721.88;;;-0.52;76.48
74633;BME280;63139;52.018;8.552;2023-04-06T05:48:13;100719.75;;;-0.45;76.76
74633;BME280;63139;52.018;8.552;2023-04-06T05:50:41;100720.22;;;-0.38;75.95
74633;BME280;63139;52.018;8.552;2023-04-06T05:53:12;100729.25;;;-0.30;75.82
74633;BME280;63139;52.018;8.552;2023-04-06T05:55:45;100726.97;;;-0.22;75.78
74633;BME280;63139;52.018;8.552;2023-04-06T05:58:17;100723.06;;;-0.15;75.85
74633;BME280;63139;52.018;8.552;2023-04-06T06:00:46;100719.91;;;-0.06;75.22
74633;BME280;63139;52.018;8.552;2023-04-06T06:03:16;100723.72;;;0.03;75.29
74633;BME280;63139;52.018;8.552;2023-04-06T06:05:50;100713.69;;;0.11;74.98
74633;BME280;63139;52.018;8.552;2023-04-06T06:08:25;100712.28;;;0.20;75.02
74633;BME280;63139;52.018;8.552;2023-04-06T06:10:54;100715.13;;;0.29;74.54
74633;BME280;63139;52.018;8.552;2023-04-06T06:13:24;100712.75;;;0.39;74.74
74633;BME280;63139;52.018;8.552;2023-04-06T06:15:52;100711.34;;;0.48;74.25
74633;BME280;63139;52.018;8.552;2023-04-06T06:18:21;100706.41;;;0.57;74.02
74633;BME280;63139;52.018;8.552;2023-04-06T06:20:52;100700.59;;;0.66;73.78
74633;BME280;63139;52.018;8.552;2023-04-06T06:23:20;100703.31;;;0.77;73.37
74633;BME280;63139;52.018;8.552;2023-04-06T06:25:48;100695.75;;;0.87;72.75
74633;BME280;63139;52.018;8.552;2023-04-06T06:28:19;100692.41;;;0.98;72.56
74633;BME280;63139;52.018;8.552;2023-04-06T06:30:47;100697.66;;;1.10;72.72
74633;BME280;63139;52.018;8.552;2023-04-06T06:33:20;100704.75;;;1.21;72.51
74633;BME280;63139;52.018;8.552;2023-04-06T06:35:50;100705.59;;;1.34;71.64
74633;BME280;63139;52.018;8.552;2023-04-06T06:38:18;100707.28;;;1.48;71.29
74633;BME280;63139;52.018;8.552;2023-04-06T06:40:49;100704.56;;;1.62;70.97
74633;BME280;63139;52.018;8.552;2023-04-06T06:43:19;100708.09;;;1.74;71.08
74633;BME280;63139;52.018;8.552;2023-04-06T06:46:07;100714.13;;;1.87;70.51
74633;BME280;63139;52.018;8.552;2023-04-06T06:48:35;100708.91;;;2.00;69.35
74633;BME280;63139;52.018;8.552;2023-04-06T06:51:03;100711.38;;;2.14;69.60
74633;BME280;63139;52.018;8.552;2023-04-06T06:53:31;100703.59;;;2.25;68.74
74633;BME280;63139;52.018;8.552;2023-04-06T06:55:59;100707.81;;;2.39;69.02
74633;BME280;63139;52.018;8.552;2023-04-06T06:58:30;100698.50;;;2.47;68.43
74633;BME280;63139;52.018;8.552;2023-04-06T07:00:59;100700.25;;;2.59;68.28
74633;BME280;63139;52.018;8.552;2023-04-06T07:03:29;100701.22;;;2.69;67.86
74633;BME280;63139;52.018;8.552;2023-04-06T07:05:57;100704.00;;;2.79;67.32
74633;BME280;63139;52.018;8.552;2023-04-06T07:08:25;100702.34;;;2.89;67.36
74633;BME280;63139;52.018;8.552;2023-04-06T07:10:53;100696.34;;;3.00;66.75
74633;BME280;63139;52.018;8.552;2023-04-06T07:13:22;100696.38;;;3.11;66.94
74633;BME280;63139;52.018;8.552;2023-04-06T07:15:55;100694.72;;;3.21;66.13
74633;BME280;63139;52.018;8.552;2023-04-06T07:18:23;100700.09;;;3.31;65.79
74633;BME280;63139;52.018;8.552;2023-04-06T07:20:51;100696.66;;;3.41;65.46
74633;BME280;63139;52.018;8.552;2023-04-06T07:23:19;100693.22;;;3.52;65.40
74633;BME280;63139;52.018;8.552;2023-04-06T07:25:47;100694.19;;;3.62;65.74
74633;BME280;63139;52.018;8.552;2023-04-06T07:28:17;100691.56;;;3.73;65.41
74633;BME280;63139;52.018;8.552;2023-04-06T07:30:45;100696.69;;;3.86;65.12
74633;BME280;63139;52.018;8.552;2023-04-06T07:33:15;100697.63;;;3.96;64.77
74633;BME280;63139;52.018;8.552;2023-04-06T07:35:43;100696.53;;;4.10;65.36
74633;BME280;63139;52.018;8.552;2023-04-06T07:38:12;100692.97;;;4.22;65.09
74633;BME280;63139;52.018;8.552;2023-04-06T07:40:40;100687.69;;;4.33;64.66
74633;BME280;63139;52.018;8.552;2023-04-06T07:43:08;100688.47;;;4.45;64.55
74633;BME280;63139;52.018;8.552;2023-04-06T07:45:37;100690.38;;;4.54;63.80
74633;BME280;63139;52.018;8.552;2023-04-06T07:48:05;100687.44;;;4.68;64.09
74633;BME280;63139;52.018;8.552;2023-04-06T07:50:35;100684.91;;;4.78;64.13
74633;BME280;63139;52.018;8.552;2023-04-06T07:53:04;100677.81;;;4.89;64.31
74633;BME280;63139;52.018;8.552;2023-04-06T07:55:33;100669.78;;;5.02;63.73
74633;BME280;63139;52.018;8.552;2023-04-06T07:58:01;100674.94;;;5.13;63.19
74633;BME280;63139;52.018;8.552;2023-04-06T08:00:29;100663.44;;;5.25;62.74
74633;BME280;63139;52.018;8.552;2023-04-06T08:02:57;100670.41;;;5.36;62.36
74633;BME280;63139;52.018;8.552;2023-04-06T08:05:26;100666.47;;;5.51;62.58
74633;BME280;63139;52.018;8.552;2023-04-06T08:07:55;100666.41;;;5.62;62.16
74633;BME280;63139;52.018;8.552;2023-04-06T08:10:23;100663.66;;;5.73;61.49
74633;BME280;63139;52.018;8.552;2023-04-06T08:12:52;100657.34;;;5.85;61.66
74633;BME280;63139;52.018;8.552;2023-04-06T08:15:20;100662.53;;;5.97;61.67
74633;BME280;63139;52.018;8.552;2023-04-06T08:17:48;100666.69;;;6.09;60.96
74633;BME280;63139;52.018;8.552;2023-04-06T08:20:15;100663.00;;;6.21;60.10
74633;BME280;63139;52.018;8.552;2023-04-06T08:22:43;100655.56;;;6.36;59.48
74633;BME280;63139;52.018;8.552;2023-04-06T08:25:13;100661.50;;;6.47;58.85
74633;BME280;63139;52.018;8.552;2023-04-06T08:27:41;100659.44;;;6.60;58.53
74633;BME280;63139;52.018;8.552;2023-04-06T08:30:09;100654.75;;;6.74;57.60
74633;BME280;63139;52.018;8.552;2023-04-06T08:32:37;100655.16;;;6.88;57.00
74633;BME280;63139;52.018;8.552;2023-04-06T08:35:05;100646.97;;;7.01;54.59
74633;BME280;63139;52.018;8.552;2023-04-06T08:37:33;100650.38;;;7.21;55.22
74633;BME280;63139;52.018;8.552;2023-04-06T08:40:01;100649.94;;;7.35;51.95
74633;BME280;63139;52.018;8.552;2023-04-06T08:42:33;100649.31;;;7.51;52.63
74633;BME280;63139;52.018;8.552;2023-04-06T08:45:05;100645.25;;;7.66;50.80
74633;BME280;63139;52.018;8.552;2023-04-06T08:47:34;100651.41;;;7.84;50.63
74633;BME280;63139;52.018;8.552;2023-04-06T08:50:03;100644.22;;;8.04;49.11
74633;BME280;63139;52.018;8.552;2023-04-06T08:52:32;100642.28;;;8.24;50.21
74633;BME280;63139;52.018;8.552;2023-04-06T08:55:00;100635.41;;;8.40;49.17
74633;BME280;63139;52.018;8.552;2023-04-06T08:57:28;100628.78;;;8.54;50.01
74633;BME280;63139;52.018;8.552;2023-04-06T09:00:00;100631.34;;;8.64;49.29
74633;BME280;63139;52.018;8.552;2023-04-06T09:02:28;100620.84;;;8.72;49.09
74633;BME280;63139;52.018;8.552;2023-04-06T09:04:57;100624.22;;;8.82;48.26
74633;BME280;63139;52.018;8.552;2023-04-06T09:07:25;100618.69;;;8.93;46.44
74633;BME280;63139;52.018;8.552;2023-04-06T09:09:55;100628.03;;;9.05;47.97
74633;BME280;63139;52.018;8.552;2023-04-06T09:12:24;100623.97;;;9.11;45.05
74633;BME280;63139;52.018;8.552;2023-04-06T09:14:53;100624.38;;;9.24;46.64
74633;BME280;63139;52.018;8.552;2023-04-06T09:17:24;100627.25;;;9.39;47.59
74633;BME280;63139;52.018;8.552;2023-04-06T09:19:53;100619.22;;;9.48;45.79
74633;BME280;63139;52.018;8.552;2023-04-06T09:22:22;100618.09;;;9.59;47.03
74633;BME280;63139;52.018;8.552;2023-04-06T09:24:52;100617.16;;;9.68;45.94
74633;BME280;63139;52.018;8.552;2023-04-06T09:27:30;100614.56;;;9.76;43.90
74633;BME280;63139;52.018;8.552;2023-04-06T09:30:04;100613.91;;;9.82;45.75
74633;BME280;63139;52.018;8.552;2023-04-06T09:32:44;100610.63;;;9.88;44.89
74633;BME280;63139;52.018;8.552;2023-04-06T09:35:13;100604.53;;;9.96;44.71
74633;BME280;63139;52.018;8.552;2023-04-06T09:37:41;100608.69;;;10.06;44.71
74633;BME280;63139;52.018;8.552;2023-04-06T09:40:09;100612.88;;;10.17;45.05
74633;BME280;63139;52.018;8.552;2023-04-06T09:42:37;100603.31;;;10.24;44.56
74633;BME280;63139;52.018;8.552;2023-04-06T09:45:08;100610.25;;;10.33;43.01
74633;BME280;63139;52.018;8.552;2023-04-06T09:47:39;100610.44;;;10.40;43.20
74633;BME280;63139;52.018;8.552;2023-04-06T09:50:11;100598.19;;;10.47;43.76
74633;BME280;63139;52.018;8.552;2023-04-06T09:52:42;100602.84;;;10.53;43.11
74633;BME280;63139;52.018;8.552;2023-04-06T09:55:12;100601.53;;;10.57;44.30
74633;BME280;63139;52.018;8.552;2023-04-06T09:57:47;100600.53;;;10.58;43.70
74633;BME280;63139;52.018;8.552;2023-04-06T10:00:20;100602.84;;;10.61;41.96
74633;BME280;63139;52.018;8.552;2023-04-06T10:02:58;100592.25;;;10.69;42.25
74633;BME280;63139;52.018;8.552;2023-04-06T10:05:32;100600.53;;;10.74;42.68
74633;BME280;63139;52.018;8.552;2023-04-06T10:08:06;100589.91;;;10.82;43.40
74633;BME280;63139;52.018;8.552;2023-04-06T10:10:36;100585.81;;;10.88;42.41
74633;BME280;63139;52.018;8.552;2023-04-06T10:13:05;100580.81;;;10.93;43.25
74633;BME280;63139;52.018;8.552;2023-04-06T10:15:33;100587.41;;;10.97;42.26
74633;BME280;63139;52.018;8.552;2023-04-06T10:18:03;100575.50;;;11.01;42.07
74633;BME280;63139;52.018;8.552;2023-04-06T10:20:41;100591.88;;;11.05;40.41
74633;BME280;63139;52.018;8.552;2023-04-06T10:23:13;100588.22;;;11.14;42.48
74633;BME280;63139;52.018;8.552;2023-04-06T10:25:52;100584.06;;;11.19;41.25
74633;BME280;63139;52.018;8.552;2023-04-06T10:28:21;100585.25;;;11.17;39.80
74633;BME280;63139;52.018;8.552;2023-04-06T10:30:49;100589.56;;;11.18;41.42
74633;BME280;63139;52.018;8.552;2023-04-06T10:33:19;100584.25;;;11.18;40.96
74633;BME280;63139;52.018;8.552;2023-04-06T10:35:47;100581.38;;;11.27;41.61
74633;BME280;63139;52.018;8.552;2023-04-06T10:38:15;100588.50;;;11.35;41.63
74633;BME280;63139;52.018;8.552;2023-04-06T10:40:48;100592.31;;;11.41;41.71
74633;BME280;63139;52.018;8.552;2023-04-06T10:43:18;100582.50;;;11.41;39.95
74633;BME280;63139;52.018;8.552;2023-04-06T10:45:54;100582.00;;;11.46;39.55
74633;BME280;63139;52.018;8.552;2023-04-06T10:48:24;100580.16;;;11.54;41.17
74633;BME280;63139;52.018;8.552;2023-04-06T10:50:53;100582.66;;;11.56;39.66
74633;BME280;63139;52.018;8.552;2023-04-06T10:53:23;100575.50;;;11.56;39.90
74633;BME280;63139;52.018;8.552;2023-04-06T10:55:51;100575.31;;;11.58;41.18
74633;BME280;63139;52.018;8.552;2023-04-06T10:58:19;100568.38;;;11.57;41.23
74633;BME280;63139;52.018;8.552;2023-04-06T11:00:48;100563.72;;;11.59;41.12
74633;BME280;63139;52.018;8.552;2023-04-06T11:03:18;100557.25;;;11.61;38.54
74633;BME280;63139;52.018;8.552;2023-04-06T11:05:48;100555.72;;;11.67;38.90
74633;BME280;63139;52.018;8.552;2023-04-06T11:08:25;100553.22;;;11.74;38.25
74633;BME280;63139;52.018;8.552;2023-04-06T11:11:04;100552.88;;;11.85;39.23
74633;BME280;63139;52.018;8.552;2023-04-06T11:13:37;100556.47;;;11.92;38.43
74633;BME280;63139;52.018;8.552;2023-04-06T11:16:06;100553.94;;;11.98;37.75
74633;BME280;63139;52.018;8.552;2023-04-06T11:18:34;100552.91;;;12.08;38.05
74633;BME280;63139;52.018;8.552;2023-04-06T11:21:04;100539.53;;;12.16;39.69
74633;BME280;63139;52.018;8.552;2023-04-06T11:23:32;100548.00;;;12.19;39.20
74633;BME280;63139;52.018;8.552;2023-04-06T11:26:00;100531.06;;;12.20;38.21
74633;BME280;63139;52.018;8.552;2023-04-06T11:28:29;100532.53;;;12.23;38.39
74633;BME280;63139;52.018;8.552;2023-04-06T11:30:57;100521.91;;;12.23;38.25
74633;BME280;63139;52.018;8.552;2023-04-06T11:33:27;100528.25;;;12.22;38.08
74633;BME280;63139;52.018;8.552;2023-04-06T11:35:57;100530.53;;;12.25;39.21
74633;BME280;63139;52.018;8.552;2023-04-06T11:38:26;100536.31;;;12.28;40.82
74633;BME280;63139;52.018;8.552;2023-04-06T11:40:54;100533.13;;;12.33;40.91
74633;BME280;63139;52.018;8.552;2023-04-06T11:43:27;100537.25;;;12.35;39.43
74633;BME280;63139;52.018;8.552;2023-04-06T11:46:03;100537.88;;;12.37;40.14
74633;BME280;63139;52.018;8.552;2023-04-06T11:48:31;100527.09;;;12.39;40.08
74633;BME280;63139;52.018;8.552;2023-04-06T11:51:01;100522.78;;;12.38;40.28
74633;BME280;63139;52.018;8.552;2023-04-06T11:53:43;100524.09;;;12.42;39.25
74633;BME280;63139;52.018;8.552;2023-04-06T11:56:22;100519.78;;;12.41;38.98
74633;BME280;63139;52.018;8.552;2023-04-06T11:58:51;100522.91;;;12.44;39.41
74633;BME280;63139;52.018;8.552;2023-04-06T12:01:19;100508.81;;;12.44;37.91
74633;BME280;63139;52.018;8.552;2023-04-06T12:03:47;100513.91;;;12.45;38.91
74633;BME280;63139;52.018;8.552;2023-04-06T12:06:15;100515.41;;;12.48;37.95
74633;BME280;63139;52.018;8.552;2023-04-06T12:08:44;100508.25;;;12.49;38.22
74633;BME280;63139;52.018;8.552;2023-04-06T12:11:13;100510.09;;;12.48;37.34
74633;BME280;63139;52.018;8.552;2023-04-06T12:13:41;100510.16;;;12.40;37.33
74633;BME280;63139;52.018;8.552;2023-04-06T12:16:09;100508.22;;;12.34;36.10
74633;BME280;63139;52.018;8.552;2023-04-06T12:18:37;100515.53;;;12.32;37.33
74633;BME280;63139;52.018;8.552;2023-04-06T12:21:05;100498.16;;;12.29;36.61
74633;BME280;63139;52.018;8.552;2023-04-06T12:23:33;100505.09;;;12.30;36.85
74633;BME280;63139;52.018;8.552;2023-04-06T12:26:02;100516.53;;;12.31;35.91
74633;BME280;63139;52.018;8.552;2023-04-06T12:28:30;100505.09;;;12.30;35.93
74633;BME280;63139;52.018;8.552;2023-04-06T12:30:58;100516.34;;;12.32;36.38
74633;BME280;63139;52.018;8.552;2023-04-06T12:33:26;100510.22;;;12.32;34.46
74633;BME280;63139;52.018;8.552;2023-04-06T12:35:54;100508.41;;;12.32;33.71
74633;BME280;63139;52.018;8.552;2023-04-06T12:38:23;100510.53;;;12.37;34.45
74633;BME280;63139;52.018;8.552;2023-04-06T12:40:51;100506.84;;;12.38;34.88
74633;BME280;63139;52.018;8.552;2023-04-06T12:43:20;100506.84;;;12.38;34.86
74633;BME280;63139;52.018;8.552;2023-04-06T12:45:49;100507.31;;;12.41;34.37
74633;BME280;63139;52.018;8.552;2023-04-06T12:48:17;100501.03;;;12.42;34.50
74633;BME280;63139;52.018;8.552;2023-04-06T12:50:54;100503.50;;;12.44;31.66
74633;BME280;63139;52.018;8.552;2023-04-06T12:53:22;100506.59;;;12.48;34.08
74633;BME280;63139;52.018;8.552;2023-04-06T12:55:50;100496.81;;;12.48;32.72
74633;BME280;63139;52.018;8.552;2023-04-06T12:58:19;100498.28;;;12.51;33.50
74633;BME280;63139;52.018;8.552;2023-04-06T13:00:48;100491.78;;;12.53;33.70
74633;BME280;63139;52.018;8.552;2023-04-06T13:03:17;100492.25;;;12.57;33.69
74633;BME280;63139;52.018;8.552;2023-04-06T13:05:45;100477.97;;;12.58;33.52
74633;BME280;63139;52.018;8.552;2023-04-06T13:08:13;100484.38;;;12.63;32.85
74633;BME280;63139;52.018;8.552;2023-04-06T13:10:43;100488.31;;;12.67;33.42